Terminal Aerodrome Forecast
Issued by NWS Pendleton, OR

Home | Current Version | Previous Version | Text Only | Print | Product List | Glossary On
Versions: 1 2 3 4 5 6 7 8 9 10 11 12 13 14
318
FTUS46 KPDT 240520
TAFPDT
TAF
KPDT 240520Z 2406/2506 26020G30KT P6SM FEW250
     FM241000 26010G20KT P6SM SKC
     FM241800 28020G30KT P6SM FEW060 SCT150 BKN250
     FM250300 28010G20KT P6SM FEW250=

USA.gov is the U.S. government's official web portal to all federal, state and local government web resources and services.